Time;durP1;ratioP1;P1;durP2;ratioP2;P2;SDS_P1;SDS_P2;PMS_P1;PMS_P2;Temp;Humidity;BMP_temperature;BMP_pressure;BME280_temperature;BME280_humidity;BME280_pressure;Samples;Min_cycle;Max_cycle;Signal;HPM_P1;HPM_P2
2022/12/19 15:03:07;;;;;;;12.85;4.93;;;8.70;78.90;;;;;;5130986;27;20104;-64
2022/12/19 15:05:33;;;;;;;10.32;4.82;;;8.70;78.90;;;;;;5112345;28;20489;-63
2022/12/19 15:07:59;;;;;;;7.38;5.05;;;8.80;78.80;;;;;;5131101;28;20020;-64
2022/12/19 15:10:34;;;;;;;12.30;7.30;;;8.80;78.40;;;;;;5112334;28;20020;-66
2022/12/19 15:13:22;;;;;;;9.68;5.90;;;8.80;78.10;;;;;;5130995;28;20027;-64
2022/12/19 15:15:53;;;;;;;8.25;4.53;;;8.80;78.10;;;;;;5130875;28;20077;-63
2022/12/19 15:18:27;;;;;;;6.78;5.03;;;8.90;77.80;;;;;;5130294;28;20023;-63
2022/12/19 15:20:56;;;;;;;8.15;5.30;;;9.00;77.50;;;;;;5129540;28;20146;-63
2022/12/19 15:23:23;;;;;;;9.07;5.75;;;8.90;77.70;;;;;;5130338;27;20019;-63
2022/12/19 15:25:51;;;;;;;9.27;5.60;;;8.90;77.90;;;;;;5130370;27;20028;-66
2022/12/19 15:28:19;;;;;;;9.65;4.65;;;8.90;77.60;;;;;;5130443;27;20102;-63
2022/12/19 15:30:55;;;;;;;7.90;4.80;;;9.00;77.40;;;;;;5130846;27;20069;-65
2022/12/19 15:33:21;;;;;;;6.40;4.25;;;9.10;77.00;;;;;;5128884;28;20424;-64
2022/12/19 15:35:46;;;;;;;12.18;6.32;;;9.10;77.00;;;;;;5130576;27;20023;-63
2022/12/19 15:38:12;;;;;;;10.32;5.25;;;9.10;76.90;;;;;;5130260;27;20026;-63
2022/12/19 15:40:39;;;;;;;10.98;5.22;;;9.10;77.30;;;;;;5130260;27;20015;-63
2022/12/19 15:43:05;;;;;;;6.70;4.30;;;9.10;77.20;;;;;;5130525;27;20415;-63
2022/12/19 15:45:32;;;;;;;13.20;5.55;;;9.10;77.30;;;;;;5129225;28;20050;-62
2022/12/19 15:47:58;;;;;;;7.68;5.22;;;8.90;77.50;;;;;;5130318;27;20036;-63
2022/12/19 15:50:30;;;;;;;7.03;4.60;;;9.00;77.60;;;;;;5129095;28;20020;-63
2022/12/19 15:52:58;;;;;;;7.90;5.32;;;9.00;77.60;;;;;;5130604;27;20027;-64
2022/12/19 15:55:27;;;;;;;7.47;4.68;;;8.90;77.80;;;;;;5130617;27;20098;-64
2022/12/19 15:57:59;;;;;;;9.43;5.60;;;9.00;77.80;;;;;;5130400;27;20489;-63
2022/12/19 16:00:32;;;;;;;6.00;3.63;;;8.80;78.00;;;;;;5130302;27;20059;-64
2022/12/19 16:02:58;;;;;;;7.32;4.47;;;9.00;77.50;;;;;;5130254;27;20054;-64
2022/12/19 16:05:24;;;;;;;10.32;4.90;;;8.90;77.60;;;;;;5130805;27;20086;-64
2022/12/19 16:07:51;;;;;;;10.65;5.30;;;9.00;77.50;;;;;;5128593;28;20030;-64
2022/12/19 16:10:17;;;;;;;7.85;4.78;;;9.00;77.50;;;;;;5129973;27;20471;-63
2022/12/19 16:12:47;;;;;;;9.20;5.00;;;9.00;77.60;;;;;;5124528;28;20119;-63
2022/12/19 16:15:33;;;;;;;10.37;4.40;;;9.10;77.20;;;;;;5117134;28;20027;-63
2022/12/19 16:18:02;;;;;;;6.60;3.80;;;9.10;77.40;;;;;;5116396;28;20081;-63
2022/12/19 16:20:32;;;;;;;7.97;4.32;;;9.10;77.50;;;;;;5114996;28;20032;-63
2022/12/19 16:22:58;;;;;;;7.95;5.20;;;9.00;77.70;;;;;;5116398;27;20049;-63
2022/12/19 16:25:33;;;;;;;11.30;6.45;;;9.10;77.60;;;;;;5114670;28;20015;-63
2022/12/19 16:28:00;;;;;;;10.40;5.53;;;8.90;78.00;;;;;;5116400;28;20341;-63
2022/12/19 16:30:31;;;;;;;5.80;3.50;;;9.00;77.90;;;;;;5115938;28;20023;-63
2022/12/19 16:32:58;;;;;;;8.25;4.38;;;9.10;77.80;;;;;;5115923;28;20066;-63
2022/12/19 16:35:26;;;;;;;7.03;4.40;;;9.10;77.70;;;;;;5115762;28;20020;-63
2022/12/19 16:37:51;;;;;;;6.88;4.30;;;9.30;77.30;;;;;;5114443;28;20035;-63
2022/12/19 16:40:22;;;;;;;6.53;4.50;;;9.20;77.70;;;;;;5114217;28;20579;-63
2022/12/19 16:42:49;;;;;;;5.70;4.03;;;9.20;77.50;;;;;;5115563;28;20051;-62
2022/12/19 16:45:20;;;;;;;7.13;4.30;;;9.30;77.40;;;;;;5115925;28;20026;-63
2022/12/19 16:47:46;;;;;;;6.15;3.80;;;9.30;76.80;;;;;;5114431;28;20041;-63
2022/12/19 16:50:22;;;;;;;5.32;3.10;;;9.30;77.00;;;;;;5115607;28;20028;-63
2022/12/19 16:52:49;;;;;;;8.93;4.45;;;9.20;77.30;;;;;;5116213;28;20105;-64
2022/12/19 16:55:15;;;;;;;8.45;4.20;;;9.30;77.30;;;;;;5115906;27;20043;-63
2022/12/19 16:57:44;;;;;;;8.90;4.57;;;9.30;77.20;;;;;;5119677;28;20028;-58
2022/12/19 17:00:16;;;;;;;7.30;3.70;;;9.30;77.30;;;;;;5114803;28;20127;-62
2022/12/19 17:02:56;;;;;;;6.93;4.63;;;9.30;77.00;;;;;;5115358;28;20509;-61
2022/12/19 17:05:25;;;;;;;9.32;4.47;;;9.40;77.00;;;;;;5113946;28;20107;-60
2022/12/19 17:07:52;;;;;;;6.35;3.70;;;9.30;77.00;;;;;;5113996;28;20355;-60
2022/12/19 17:10:20;;;;;;;6.00;3.65;;;9.30;77.40;;;;;;5115764;28;20069;-61
2022/12/19 17:12:47;;;;;;;4.97;3.83;;;9.30;77.30;;;;;;5114117;28;20398;-60
2022/12/19 17:15:35;;;;;;;9.00;4.00;;;9.30;77.30;;;;;;5114256;28;20028;-59
2022/12/19 17:18:21;;;;;;;5.97;3.58;;;9.40;77.10;;;;;;5113863;28;20055;-60
2022/12/19 17:20:47;;;;;;;6.55;3.80;;;9.30;77.20;;;;;;5114308;28;20028;-60
2022/12/19 17:23:19;;;;;;;7.35;4.03;;;9.30;77.30;;;;;;5114628;28;20016;-60
2022/12/19 17:25:45;;;;;;;7.43;3.90;;;9.40;77.10;;;;;;5114027;28;20030;-57
2022/12/19 17:28:11;;;;;;;8.60;3.85;;;9.40;77.10;;;;;;5113662;28;20019;-58
2022/12/19 17:30:38;;;;;;;4.55;2.67;;;9.50;77.00;;;;;;5114914;28;20050;-59
2022/12/19 17:33:04;;;;;;;8.25;4.90;;;9.60;76.40;;;;;;5114825;28;20410;-58
2022/12/19 17:35:35;;;;;;;8.77;3.67;;;9.50;77.00;;;;;;5117032;28;20122;-61
2022/12/19 17:38:01;;;;;;;7.40;4.32;;;9.40;77.10;;;;;;5114599;28;20031;-60
2022/12/19 17:40:30;;;;;;;5.43;3.38;;;9.40;77.20;;;;;;5113799;28;20118;-61
2022/12/19 17:42:57;;;;;;;5.50;3.92;;;9.40;77.20;;;;;;5114679;28;20076;-59
2022/12/19 17:45:25;;;;;;;9.10;4.43;;;9.50;77.20;;;;;;5115121;28;20028;-61
2022/12/19 17:47:52;;;;;;;7.57;4.32;;;9.40;77.30;;;;;;5113300;28;20027;-59
2022/12/19 17:50:18;;;;;;;5.15;2.88;;;9.30;77.40;;;;;;5113434;28;20024;-61
2022/12/19 17:52:43;;;;;;;7.15;4.05;;;9.30;77.80;;;;;;5114820;28;20085;-60
2022/12/19 17:55:21;;;;;;;9.23;3.30;;;9.30;77.80;;;;;;5113274;28;20046;-60
2022/12/19 17:57:47;;;;;;;7.70;3.78;;;9.30;78.20;;;;;;5114779;28;20107;-61
2022/12/19 18:00:15;;;;;;;5.30;3.58;;;9.30;77.80;;;;;;5114436;28;20024;-61
2022/12/19 18:02:41;;;;;;;7.10;4.00;;;9.30;77.70;;;;;;5115076;28;20048;-62
2022/12/19 18:05:14;;;;;;;10.27;4.72;;;9.30;78.00;;;;;;5113182;28;20026;-62
2022/12/19 18:07:39;;;;;;;7.55;4.10;;;9.40;77.90;;;;;;5114111;28;20069;-60
2022/12/19 18:10:26;;;;;;;8.40;2.53;;;9.40;77.70;;;;;;5112742;28;20024;-60
2022/12/19 18:12:53;;;;;;;4.93;3.63;;;9.50;77.60;;;;;;5114569;28;20019;-61
2022/12/19 18:15:20;;;;;;;6.43;3.45;;;9.40;77.60;;;;;;5114007;28;20433;-64
2022/12/19 18:17:47;;;;;;;5.50;2.47;;;9.50;77.70;;;;;;5112914;28;20076;-62
2022/12/19 18:20:34;;;;;;;9.20;4.07;;;9.50;77.40;;;;;;5112608;28;20023;-62
2022/12/19 18:23:00;;;;;;;6.20;4.13;;;9.50;77.50;;;;;;5114108;28;20501;-63
2022/12/19 18:25:29;;;;;;;6.18;3.10;;;9.50;77.70;;;;;;5114071;28;20324;-60
2022/12/19 18:27:56;;;;;;;8.68;4.32;;;9.50;77.80;;;;;;5113931;28;20031;-62
2022/12/19 18:30:23;;;;;;;8.35;3.80;;;9.50;77.70;;;;;;5114444;28;20072;-60
2022/12/19 18:32:56;;;;;;;6.38;3.70;;;9.50;77.80;;;;;;5114876;28;20143;-63
2022/12/19 18:35:43;;;;;;;7.63;4.22;;;9.50;77.70;;;;;;5113041;28;20031;-62
2022/12/19 18:38:21;;;;;;;10.40;4.22;;;9.50;77.50;;;;;;5114340;28;20015;-62
2022/12/19 18:40:48;;;;;;;7.80;3.90;;;9.60;77.40;;;;;;5113940;28;20069;-63
2022/12/19 18:43:15;;;;;;;6.93;4.50;;;9.50;77.50;;;;;;5112411;28;20486;-61
2022/12/19 18:45:42;;;;;;;5.40;3.72;;;9.40;78.10;;;;;;5112295;28;20114;-62
2022/12/19 18:48:38;;;;;;;8.02;4.75;;;9.50;77.80;;;;;;5113865;28;20019;-61
2022/12/19 18:51:04;;;;;;;5.40;3.70;;;9.50;77.70;;;;;;5113872;28;20024;-61
2022/12/19 18:53:34;;;;;;;5.95;3.72;;;9.60;77.60;;;;;;5113635;28;20091;-60
2022/12/19 18:56:01;;;;;;;7.43;4.57;;;9.60;77.70;;;;;;5114227;28;20012;-62
2022/12/19 18:58:27;;;;;;;8.20;3.38;;;9.60;77.60;;;;;;5113784;28;20109;-61
2022/12/19 19:00:56;;;;;;;7.93;4.03;;;9.60;77.50;;;;;;5113633;28;20559;-61
2022/12/19 19:03:26;;;;;;;8.32;3.50;;;9.70;77.70;;;;;;5113818;28;20020;-62
2022/12/19 19:05:53;;;;;;;;;;;9.70;77.50;;;;;;5113818;28;20026;-59
2022/12/19 19:08:23;;;;;;;12.02;4.32;;;9.80;77.30;;;;;;5113815;28;19951;-60
2022/12/19 19:10:51;;;;;;;6.75;3.78;;;9.70;77.40;;;;;;5113539;28;20085;-61
2022/12/19 19:13:18;;;;;;;5.68;3.22;;;9.80;77.50;;;;;;5113338;28;20150;-61
2022/12/19 19:15:55;;;;;;;13.20;4.35;;;9.80;77.40;;;;;;5112050;28;20051;-61
2022/12/19 19:18:43;;;;;;;7.47;4.18;;;9.80;77.50;;;;;;5113259;28;20024;-61
2022/12/19 19:21:12;;;;;;;9.35;5.05;;;9.70;77.80;;;;;;5113839;28;20412;-60
2022/12/19 19:23:42;;;;;;;8.00;3.67;;;9.80;77.80;;;;;;5113869;28;20015;-62
2022/12/19 19:26:07;;;;;;;8.60;3.47;;;9.80;77.50;;;;;;5113428;28;20093;-62
2022/12/19 19:28:36;;;;;;;6.10;3.38;;;9.80;77.60;;;;;;5112020;28;20028;-63
2022/12/19 19:31:01;;;;;;;11.02;5.53;;;9.80;77.40;;;;;;5113515;28;20042;-61
2022/12/19 19:33:36;;;;;;;8.43;4.40;;;9.80;77.70;;;;;;5112068;28;20024;-61
2022/12/19 19:36:06;;;;;;;9.45;4.38;;;9.80;77.80;;;;;;5113303;28;20383;-62
2022/12/19 19:38:32;;;;;;;7.40;3.08;;;9.70;77.90;;;;;;5112483;28;20023;-62
2022/12/19 19:40:57;;;;;;;6.30;4.07;;;9.70;78.20;;;;;;5113071;28;20039;-61
2022/12/19 19:43:23;;;;;;;9.02;3.85;;;9.70;78.10;;;;;;5113180;28;20494;-60
2022/12/19 19:45:49;;;;;;;4.97;3.25;;;9.70;78.40;;;;;;5111774;28;20020;-60
2022/12/19 19:48:15;;;;;;;4.82;3.42;;;9.60;78.40;;;;;;5114036;28;20031;-62
2022/12/19 19:50:41;;;;;;;6.75;2.90;;;9.70;78.50;;;;;;5117546;28;20032;-62
2022/12/19 19:53:07;;;;;;;5.70;3.80;;;9.70;78.60;;;;;;5116894;28;20020;-61
2022/12/19 19:55:32;;;;;;;4.45;3.05;;;9.60;78.70;;;;;;5116970;28;20020;-60
2022/12/19 19:57:58;;;;;;;9.00;4.03;;;9.60;78.80;;;;;;5116782;27;20028;-62
2022/12/19 20:00:24;;;;;;;5.57;3.33;;;9.60;78.90;;;;;;5115288;28;20077;-62
2022/12/19 20:02:50;;;;;;;4.88;3.35;;;9.80;78.70;;;;;;5114983;28;20043;-61
2022/12/19 20:05:16;;;;;;;4.72;2.97;;;9.70;78.70;;;;;;5116654;28;20024;-61
2022/12/19 20:07:42;;;;;;;6.70;3.25;;;9.80;78.40;;;;;;5116649;28;20095;-61
2022/12/19 20:10:08;;;;;;;5.50;3.58;;;9.80;78.50;;;;;;5116493;28;20058;-60
2022/12/19 20:12:34;;;;;;;6.95;3.88;;;9.80;78.60;;;;;;5115963;28;20067;-61
2022/12/19 20:14:59;;;;;;;6.57;3.67;;;9.80;78.60;;;;;;5117625;28;20019;-62
2022/12/19 20:17:25;;;;;;;5.47;3.67;;;9.80;78.90;;;;;;5115229;28;20058;-60
2022/12/19 20:19:52;;;;;;;9.10;3.28;;;9.80;78.70;;;;;;5116797;28;20035;-61
2022/12/19 20:22:18;;;;;;;7.28;4.13;;;9.80;79.10;;;;;;5114887;28;20031;-60
2022/12/19 20:24:44;;;;;;;5.95;3.20;;;9.80;78.80;;;;;;5114995;28;20019;-61
2022/12/19 20:27:10;;;;;;;5.88;3.70;;;10.00;78.60;;;;;;5116365;28;20023;-60
2022/12/19 20:29:36;;;;;;;6.80;2.92;;;10.10;78.20;;;;;;5116185;28;20455;-62
2022/12/19 20:32:02;;;;;;;7.47;3.50;;;9.90;78.70;;;;;;5116132;28;20039;-63
2022/12/19 20:34:28;;;;;;;5.55;3.83;;;9.80;78.80;;;;;;5115025;28;20023;-61
2022/12/19 20:36:54;;;;;;;4.57;2.63;;;9.80;79.20;;;;;;5116700;28;20036;-61
2022/12/19 20:39:21;;;;;;;7.00;3.60;;;9.80;79.40;;;;;;5116267;28;20424;-63
2022/12/19 20:41:50;;;;;;;14.13;5.72;;;9.70;79.70;;;;;;5116189;28;20031;-62
2022/12/19 20:44:17;;;;;;;7.73;3.43;;;9.80;79.60;;;;;;5116114;28;20068;-62
2022/12/19 20:46:43;;;;;;;4.85;3.25;;;9.80;80.00;;;;;;5116810;28;20016;-61
2022/12/19 20:49:09;;;;;;;8.25;2.70;;;9.80;80.00;;;;;;5116143;27;20058;-61
2022/12/19 20:51:36;;;;;;;7.55;3.05;;;9.90;79.80;;;;;;5116069;27;20563;-62
2022/12/19 20:54:03;;;;;;;6.97;3.13;;;10.00;79.70;;;;;;5116032;28;20077;-61
2022/12/19 20:56:29;;;;;;;3.67;2.40;;;10.10;79.20;;;;;;5115745;27;20024;-61
2022/12/19 20:58:55;;;;;;;7.38;3.83;;;10.10;79.40;;;;;;5115656;27;20027;-60
